McNeil, Arkansas
Current Conditions -  °F | °C
As of 6:53 AM on Tuesday 21 Oct 2014 (Local Time) from KELD Reporting Station
Haze Haze  
Wind Chill: 58°   Ceiling: 4700
Heat Index: 58°   Visibility: 6mi
Dew Point: 56°   Wind: 0mph
Humidity: 93%   Direction: NA
Pressure: 30.08"   Gusts: NA
Location:  33.35°N, 93.21°W
Report Text: KELD 211153Z AUTO 00000KT 6SM BR OVC047 14/13 A3008 RMK AO2 SLP184 T01440133 10144 20117 51012
Loading
Personal Weather Stations






























Interactive Weather Map
Tropical Storm Tracking
New forecast layout! Learn more

10-Day Weather Forecast

Advertisements
Track Severe Weather on mobile